Time;durP1;ratioP1;P1;durP2;ratioP2;P2;SDS_P1;SDS_P2;PMS_P1;PMS_P2;Temp;Humidity;BMP_temperature;BMP_pressure;BME280_temperature;BME280_humidity;BME280_pressure;Samples;Min_cycle;Max_cycle;Signal;HPM_P1;HPM_P2
2024/01/11 00:01:08;;;;;;;10.10;6.82;;;;;;;;;;5049589;28;20016;-62
2024/01/11 00:03:34;;;;;;;9.73;6.53;;;;;;;;;;5064167;28;20020;-62
2024/01/11 00:06:00;;;;;;;9.80;6.82;;;;;;;;;;5042254;28;20329;-63
2024/01/11 00:08:26;;;;;;;10.43;7.80;;;;;;;;;;5044552;28;20049;-63
2024/01/11 00:10:51;;;;;;;12.40;8.35;;;;;;;;;;5045056;28;20229;-63
2024/01/11 00:13:16;;;;;;;20.50;12.43;;;;;;;;;;5044578;28;20013;-62
2024/01/11 00:15:42;;;;;;;16.20;9.88;;;;;;;;;;5044049;28;20024;-62
2024/01/11 00:18:07;;;;;;;19.17;12.38;;;;;;;;;;5064795;28;20320;-63
2024/01/11 00:20:33;;;;;;;15.27;10.20;;;;;;;;;;5048405;28;20072;-62
2024/01/11 00:22:58;;;;;;;19.17;13.32;;;;;;;;;;5042989;28;20018;-62
2024/01/11 00:25:24;;;;;;;27.20;16.50;;;;;;;;;;5031334;28;20290;-62
2024/01/11 00:27:50;;;;;;;34.78;23.73;;;;;;;;;;5046583;28;20263;-63
2024/01/11 00:30:15;;;;;;;33.70;22.17;;;;;;;;;;5064758;28;20017;-62
2024/01/11 00:32:40;;;;;;;34.45;22.38;;;;;;;;;;5047378;28;20024;-61
2024/01/11 00:35:06;;;;;;;39.88;26.05;;;;;;;;;;5056774;28;20329;-61
2024/01/11 00:37:31;;;;;;;34.10;21.25;;;;;;;;;;5056717;28;20076;-61
2024/01/11 00:39:57;;;;;;;33.08;21.42;;;;;;;;;;5047179;28;20036;-62
2024/01/11 00:42:22;;;;;;;48.92;30.58;;;;;;;;;;5064329;28;20028;-62
2024/01/11 00:44:49;;;;;;;40.55;25.50;;;;;;;;;;5046180;28;20317;-61
2024/01/11 00:47:14;;;;;;;46.28;29.58;;;;;;;;;;5057754;28;20021;-62
2024/01/11 00:49:40;;;;;;;51.83;33.38;;;;;;;;;;5055454;28;20088;-61
2024/01/11 00:52:06;;;;;;;51.45;32.70;;;;;;;;;;5044078;28;20317;-62
2024/01/11 00:54:31;;;;;;;53.67;35.83;;;;;;;;;;5043927;28;20024;-61
2024/01/11 00:56:56;;;;;;;63.60;38.55;;;;;;;;;;5063434;28;20033;-63
2024/01/11 00:59:22;;;;;;;73.50;44.67;;;;;;;;;;5049433;28;20021;-62
2024/01/11 01:01:48;;;;;;;77.72;46.97;;;;;;;;;;5053513;28;20040;-62
2024/01/11 01:04:14;;;;;;;82.15;50.10;;;;;;;;;;5042980;28;20018;-63
2024/01/11 01:06:39;;;;;;;96.88;55.35;;;;;;;;;;5036519;28;20089;-62
2024/01/11 01:09:05;;;;;;;92.75;53.85;;;;;;;;;;5063925;28;20289;-62
2024/01/11 01:11:30;;;;;;;102.28;60.78;;;;;;;;;;5048307;28;20089;-62
2024/01/11 01:13:55;;;;;;;99.38;57.28;;;;;;;;;;5043814;28;20017;-62
2024/01/11 01:16:21;;;;;;;101.13;57.30;;;;;;;;;;5049317;28;20024;-62
2024/01/11 01:18:46;;;;;;;95.63;54.55;;;;;;;;;;5062719;28;20032;-63
2024/01/11 01:21:12;;;;;;;80.68;47.58;;;;;;;;;;5043613;28;20018;-62
2024/01/11 01:23:38;;;;;;;60.38;33.90;;;;;;;;;;5059745;28;20350;-62
2024/01/11 01:26:03;;;;;;;53.33;30.90;;;;;;;;;;5052014;28;20190;-62
2024/01/11 01:28:28;;;;;;;36.20;21.40;;;;;;;;;;5050084;28;20013;-62
2024/01/11 01:30:54;;;;;;;48.55;25.92;;;;;;;;;;5061467;28;20457;-61
2024/01/11 01:33:19;;;;;;;27.50;15.85;;;;;;;;;;5043296;28;20049;-62
2024/01/11 01:35:45;;;;;;;25.95;14.18;;;;;;;;;;5060356;28;20048;-62
2024/01/11 01:38:11;;;;;;;19.42;12.38;;;;;;;;;;5050743;28;20039;-62
2024/01/11 01:40:37;;;;;;;20.30;12.25;;;;;;;;;;5050947;28;20020;-63
2024/01/11 01:43:06;;;;;;;11.95;7.97;;;;;;;;;;5060493;28;20021;-62
2024/01/11 01:45:31;;;;;;;10.82;6.65;;;;;;;;;;5043123;28;20135;-63
2024/01/11 01:47:57;;;;;;;8.15;5.97;;;;;;;;;;5061764;28;20025;-62
2024/01/11 01:50:23;;;;;;;5.25;4.07;;;;;;;;;;5064436;28;20183;-63
2024/01/11 01:52:48;;;;;;;5.60;4.50;;;;;;;;;;5043107;28;20057;-62
2024/01/11 01:55:14;;;;;;;5.53;4.30;;;;;;;;;;5062743;28;20021;-62
2024/01/11 01:57:40;;;;;;;5.85;4.30;;;;;;;;;;5062970;28;20029;-62
2024/01/11 02:00:08;;;;;;;7.00;3.42;;;;;;;;;;5043101;28;20055;-63
2024/01/11 02:02:34;;;;;;;5.18;3.80;;;;;;;;;;5056604;28;20119;-62
2024/01/11 02:05:00;;;;;;;5.85;3.95;;;;;;;;;;5059344;28;20216;-62
2024/01/11 02:07:26;;;;;;;6.50;4.00;;;;;;;;;;5041455;28;20056;-62
2024/01/11 02:09:51;;;;;;;8.40;5.00;;;;;;;;;;5036227;28;20042;-64
2024/01/11 02:12:17;;;;;;;6.13;3.55;;;;;;;;;;5049717;28;20021;-64
2024/01/11 02:14:42;;;;;;;5.82;3.75;;;;;;;;;;5042722;28;20025;-62
2024/01/11 02:17:08;;;;;;;5.45;3.55;;;;;;;;;;5054284;28;20029;-63
2024/01/11 02:19:54;;;;;;;4.75;3.65;;;;;;;;;;5065683;28;20302;-64
2024/01/11 02:22:21;;;;;;;6.10;4.03;;;;;;;;;;5047422;28;20052;-63
2024/01/11 02:24:47;;;;;;;5.32;3.53;;;;;;;;;;5061884;28;20025;-62
2024/01/11 02:27:12;;;;;;;4.47;3.50;;;;;;;;;;5042393;28;20044;-63
2024/01/11 02:29:38;;;;;;;4.07;3.58;;;;;;;;;;5042374;28;20320;-63
2024/01/11 02:32:05;;;;;;;4.97;3.15;;;;;;;;;;5053286;28;20229;-63
2024/01/11 02:34:31;;;;;;;5.88;3.63;;;;;;;;;;5055808;28;20032;-64
2024/01/11 02:36:57;;;;;;;4.28;3.10;;;;;;;;;;5043840;28;20041;-62
2024/01/11 02:39:23;;;;;;;3.67;2.80;;;;;;;;;;5062272;28;20024;-62
2024/01/11 02:41:50;;;;;;;3.70;2.70;;;;;;;;;;5045365;28;20017;-62
2024/01/11 02:44:15;;;;;;;3.45;2.75;;;;;;;;;;5042268;28;20025;-63
2024/01/11 02:46:41;;;;;;;3.72;2.95;;;;;;;;;;5042312;28;20021;-62
2024/01/11 02:49:06;;;;;;;3.42;2.63;;;;;;;;;;5042172;28;20022;-64
2024/01/11 02:51:31;;;;;;;5.15;2.55;;;;;;;;;;5042209;28;20064;-62
2024/01/11 02:53:57;;;;;;;3.58;2.83;;;;;;;;;;5060555;28;20017;-64
2024/01/11 02:56:23;;;;;;;4.22;2.60;;;;;;;;;;5064332;28;20352;-63
2024/01/11 02:58:49;;;;;;;4.35;2.90;;;;;;;;;;5042336;28;20025;-62
2024/01/11 03:01:14;;;;;;;3.72;2.60;;;;;;;;;;5045979;28;20013;-63
2024/01/11 03:03:40;;;;;;;3.83;2.88;;;;;;;;;;5059615;28;20024;-63
2024/01/11 03:06:05;;;;;;;3.58;2.58;;;;;;;;;;5041366;28;20025;-64
2024/01/11 03:08:31;;;;;;;2.40;2.20;;;;;;;;;;5044897;28;20097;-64
2024/01/11 03:10:56;;;;;;;3.08;2.20;;;;;;;;;;5049786;28;20048;-63
2024/01/11 03:13:22;;;;;;;2.13;1.92;;;;;;;;;;5044615;28;20050;-63
2024/01/11 03:15:48;;;;;;;3.33;2.28;;;;;;;;;;5024441;28;20089;-62
2024/01/11 03:18:14;;;;;;;2.42;1.98;;;;;;;;;;5062061;28;20313;-63
2024/01/11 03:20:40;;;;;;;4.10;2.30;;;;;;;;;;5050391;28;20028;-62
2024/01/11 03:23:05;;;;;;;4.25;2.85;;;;;;;;;;5045940;28;20021;-63
2024/01/11 03:25:31;;;;;;;4.15;2.63;;;;;;;;;;5051683;28;20252;-64
2024/01/11 03:27:57;;;;;;;3.42;1.90;;;;;;;;;;5064647;28;20028;-64
2024/01/11 03:30:23;;;;;;;3.40;2.08;;;;;;;;;;5045911;28;20085;-64
2024/01/11 03:32:48;;;;;;;2.80;2.05;;;;;;;;;;5062190;28;20044;-64
2024/01/11 03:35:14;;;;;;;1.90;1.73;;;;;;;;;;5053860;28;20035;-64
2024/01/11 03:37:39;;;;;;;2.53;2.33;;;;;;;;;;5047923;28;20037;-64
2024/01/11 03:40:05;;;;;;;3.33;1.95;;;;;;;;;;5063246;28;20459;-64
2024/01/11 03:42:31;;;;;;;3.97;2.00;;;;;;;;;;5065270;28;20029;-64
2024/01/11 03:44:56;;;;;;;7.95;5.05;;;;;;;;;;5047899;28;20022;-64
2024/01/11 03:47:22;;;;;;;2.00;1.80;;;;;;;;;;5058256;28;20017;-64
2024/01/11 03:49:47;;;;;;;2.78;2.30;;;;;;;;;;5057208;28;20025;-63
2024/01/11 03:52:13;;;;;;;3.08;1.67;;;;;;;;;;5045212;28;20060;-63
2024/01/11 03:54:38;;;;;;;2.60;1.77;;;;;;;;;;5045344;28;20059;-65
2024/01/11 03:57:04;;;;;;;2.58;2.00;;;;;;;;;;5063675;28;20070;-65
2024/01/11 03:59:30;;;;;;;2.47;1.90;;;;;;;;;;5045128;28;20029;-65
2024/01/11 04:01:55;;;;;;;2.50;2.03;;;;;;;;;;5047267;28;20033;-64
2024/01/11 04:04:22;;;;;;;2.95;2.20;;;;;;;;;;5044519;28;20186;-64
2024/01/11 04:06:47;;;;;;;3.05;1.98;;;;;;;;;;5031370;28;20060;-64
2024/01/11 04:09:13;;;;;;;4.10;2.10;;;;;;;;;;5047847;28;20207;-64
2024/01/11 04:11:38;;;;;;;3.55;2.28;;;;;;;;;;5051886;28;20017;-64
2024/01/11 04:14:04;;;;;;;3.13;2.15;;;;;;;;;;5054996;28;20024;-64
2024/01/11 04:16:29;;;;;;;3.65;2.45;;;;;;;;;;5058095;28;20024;-64
2024/01/11 04:18:55;;;;;;;4.65;2.13;;;;;;;;;;5064331;28;20040;-64
2024/01/11 04:21:24;;;;;;;2.63;2.20;;;;;;;;;;5033356;28;20089;-65
2024/01/11 04:23:50;;;;;;;2.85;2.17;;;;;;;;;;5057354;28;20044;-64
2024/01/11 04:26:16;;;;;;;2.40;2.20;;;;;;;;;;5052729;28;20025;-64
2024/01/11 04:28:42;;;;;;;4.80;2.53;;;;;;;;;;5051630;28;20083;-64
2024/01/11 04:31:10;;;;;;;3.17;2.15;;;;;;;;;;5062123;28;20028;-64
2024/01/11 04:33:36;;;;;;;2.60;2.38;;;;;;;;;;5044405;28;20024;-65
2024/01/11 04:36:01;;;;;;;3.90;2.47;;;;;;;;;;5062178;28;20108;-65
2024/01/11 04:38:26;;;;;;;3.13;2.50;;;;;;;;;;5051320;28;20021;-65
2024/01/11 04:40:52;;;;;;;4.20;2.58;;;;;;;;;;5067903;28;20029;-64
2024/01/11 04:43:17;;;;;;;2.83;2.10;;;;;;;;;;5060453;28;20048;-64
2024/01/11 04:45:43;;;;;;;2.40;2.17;;;;;;;;;;5044192;28;20052;-65
2024/01/11 04:48:08;;;;;;;3.90;2.40;;;;;;;;;;5046217;28;20255;-66
2024/01/11 04:50:34;;;;;;;3.83;2.35;;;;;;;;;;5038528;28;20017;-65
2024/01/11 04:52:59;;;;;;;3.97;2.33;;;;;;;;;;5048739;28;20047;-65
2024/01/11 04:55:25;;;;;;;3.42;2.30;;;;;;;;;;5059596;28;20071;-66
2024/01/11 04:57:50;;;;;;;3.38;2.15;;;;;;;;;;5043945;28;20021;-64
2024/01/11 05:00:16;;;;;;;4.95;2.95;;;;;;;;;;5066178;28;20091;-65
2024/01/11 05:02:41;;;;;;;3.38;2.20;;;;;;;;;;5058665;28;20021;-65
2024/01/11 05:05:07;;;;;;;4.47;2.20;;;;;;;;;;5044955;28;20018;-65
2024/01/11 05:07:34;;;;;;;5.20;2.38;;;;;;;;;;5035828;28;20037;-66
2024/01/11 05:09:59;;;;;;;2.35;1.88;;;;;;;;;;5043062;28;20029;-64
2024/01/11 05:12:25;;;;;;;4.22;2.03;;;;;;;;;;5038268;28;20056;-64
2024/01/11 05:14:50;;;;;;;3.17;2.05;;;;;;;;;;5055036;28;20028;-65
2024/01/11 05:17:16;;;;;;;3.42;1.60;;;;;;;;;;5051787;28;20064;-65
2024/01/11 05:19:41;;;;;;;3.70;2.10;;;;;;;;;;5049794;28;20056;-64
2024/01/11 05:22:07;;;;;;;2.63;1.50;;;;;;;;;;5061900;28;20040;-64
2024/01/11 05:24:33;;;;;;;2.22;1.60;;;;;;;;;;5043487;28;20313;-65
2024/01/11 05:26:59;;;;;;;1.65;1.52;;;;;;;;;;5060246;28;20021;-65
2024/01/11 05:29:24;;;;;;;1.55;1.45;;;;;;;;;;5050858;28;20044;-64
2024/01/11 05:31:50;;;;;;;2.03;1.60;;;;;;;;;;5050621;28;20021;-64
2024/01/11 05:34:15;;;;;;;2.03;1.80;;;;;;;;;;5060482;28;20024;-65
2024/01/11 05:36:41;;;;;;;3.03;1.67;;;;;;;;;;5058502;28;20041;-64
2024/01/11 05:39:06;;;;;;;1.92;1.40;;;;;;;;;;5060947;28;20282;-64
2024/01/11 05:41:32;;;;;;;2.33;1.70;;;;;;;;;;5049337;28;20040;-66
2024/01/11 05:43:58;;;;;;;1.92;1.55;;;;;;;;;;5051522;28;20017;-63
2024/01/11 05:46:23;;;;;;;4.32;2.05;;;;;;;;;;5059722;28;20439;-63
2024/01/11 05:48:49;;;;;;;3.28;1.65;;;;;;;;;;5043201;28;20028;-65
2024/01/11 05:51:14;;;;;;;3.15;1.90;;;;;;;;;;5024450;28;20090;-65
2024/01/11 05:53:39;;;;;;;2.55;1.70;;;;;;;;;;5051170;28;20140;-64
2024/01/11 05:56:09;;;;;;;2.13;1.70;;;;;;;;;;5053522;28;20049;-64
2024/01/11 05:58:36;;;;;;;1.52;1.42;;;;;;;;;;5047733;28;20088;-65
2024/01/11 06:01:02;;;;;;;2.88;1.70;;;;;;;;;;5062451;28;20021;-64
2024/01/11 06:03:28;;;;;;;3.35;1.75;;;;;;;;;;5042652;28;20040;-64
2024/01/11 06:05:53;;;;;;;2.03;1.83;;;;;;;;;;5058756;28;20209;-65
2024/01/11 06:08:19;;;;;;;4.03;1.85;;;;;;;;;;5057795;28;20033;-64
2024/01/11 06:10:44;;;;;;;1.70;1.60;;;;;;;;;;5056533;28;20013;-65
2024/01/11 06:13:10;;;;;;;2.97;1.40;;;;;;;;;;5044640;28;20048;-65
2024/01/11 06:15:35;;;;;;;3.20;1.35;;;;;;;;;;5063435;28;20021;-64
2024/01/11 06:18:01;;;;;;;2.97;1.42;;;;;;;;;;5045986;28;20084;-64
2024/01/11 06:20:26;;;;;;;1.40;1.30;;;;;;;;;;5054190;28;20067;-65
2024/01/11 06:22:51;;;;;;;1.85;1.40;;;;;;;;;;5055288;28;20282;-65
2024/01/11 06:25:18;;;;;;;2.08;1.20;;;;;;;;;;5044746;28;20075;-65
2024/01/11 06:27:44;;;;;;;3.30;2.40;;;;;;;;;;5062736;28;20388;-65
2024/01/11 06:30:09;;;;;;;3.90;1.75;;;;;;;;;;5040512;28;20133;-65
2024/01/11 06:32:35;;;;;;;2.42;1.70;;;;;;;;;;5048634;28;20212;-64
2024/01/11 06:35:01;;;;;;;3.55;1.75;;;;;;;;;;5054143;28;20056;-64
2024/01/11 06:37:27;;;;;;;4.32;1.40;;;;;;;;;;5041789;28;20033;-65
2024/01/11 06:39:53;;;;;;;2.75;2.00;;;;;;;;;;5042384;28;20020;-64
2024/01/11 06:42:18;;;;;;;3.97;1.90;;;;;;;;;;5042285;28;20331;-64
2024/01/11 06:44:44;;;;;;;4.00;1.77;;;;;;;;;;5056233;28;20047;-65
2024/01/11 06:47:09;;;;;;;1.98;1.80;;;;;;;;;;5052653;28;20043;-65
2024/01/11 06:49:37;;;;;;;1.98;1.60;;;;;;;;;;5041866;28;20076;-65
2024/01/11 06:52:04;;;;;;;6.65;2.88;;;;;;;;;;5042009;28;20021;-65
2024/01/11 06:54:31;;;;;;;4.75;2.20;;;;;;;;;;5046128;28;20206;-65
2024/01/11 06:56:56;;;;;;;2.25;1.70;;;;;;;;;;5046317;28;20025;-65
2024/01/11 06:59:22;;;;;;;2.40;1.48;;;;;;;;;;5057004;28;20021;-65
2024/01/11 07:01:47;;;;;;;13.48;4.45;;;;;;;;;;5060308;28;20024;-65
2024/01/11 07:04:13;;;;;;;3.72;1.42;;;;;;;;;;5047639;28;20075;-65
2024/01/11 07:06:38;;;;;;;2.20;1.30;;;;;;;;;;5064096;28;20089;-64
2024/01/11 07:09:05;;;;;;;2.20;1.60;;;;;;;;;;5062687;28;20028;-65
2024/01/11 07:11:32;;;;;;;2.85;1.35;;;;;;;;;;5053912;28;20045;-64
2024/01/11 07:13:57;;;;;;;2.28;1.20;;;;;;;;;;5053774;28;20146;-65
2024/01/11 07:16:23;;;;;;;6.20;2.10;;;;;;;;;;5063239;28;20037;-65
2024/01/11 07:18:49;;;;;;;3.85;1.33;;;;;;;;;;5046036;28;20068;-65
2024/01/11 07:21:20;;;;;;;2.22;1.23;;;;;;;;;;5063857;28;20023;-65
2024/01/11 07:23:45;;;;;;;13.57;6.85;;;;;;;;;;5052012;28;20080;-65
2024/01/11 07:26:11;;;;;;;2.15;1.50;;;;;;;;;;5055124;28;20309;-66
2024/01/11 07:28:36;;;;;;;2.92;1.65;;;;;;;;;;5061242;28;20206;-64
2024/01/11 07:31:02;;;;;;;2.78;1.30;;;;;;;;;;5045794;28;20072;-65
2024/01/11 07:33:27;;;;;;;3.95;1.58;;;;;;;;;;5065368;28;20025;-65
2024/01/11 07:35:53;;;;;;;4.65;1.45;;;;;;;;;;5065756;28;20257;-65
2024/01/11 07:38:18;;;;;;;3.92;1.73;;;;;;;;;;5055607;28;20098;-65
2024/01/11 07:40:44;;;;;;;2.22;1.52;;;;;;;;;;5060078;28;20044;-65
2024/01/11 07:43:09;;;;;;;5.38;1.95;;;;;;;;;;5046313;28;20025;-65
2024/01/11 07:45:34;;;;;;;4.15;2.10;;;;;;;;;;5065421;28;20098;-64
2024/01/11 07:48:02;;;;;;;4.15;1.70;;;;;;;;;;5049712;28;20021;-65
2024/01/11 07:50:28;;;;;;;2.00;1.60;;;;;;;;;;5045118;28;20032;-65
2024/01/11 07:52:53;;;;;;;1.88;1.30;;;;;;;;;;5052084;28;20024;-64
2024/01/11 07:55:23;;;;;;;8.02;6.05;;;;;;;;;;5063543;28;20088;-65
2024/01/11 07:57:49;;;;;;;2.33;1.40;;;;;;;;;;5045468;28;20197;-64
2024/01/11 08:00:15;;;;;;;3.95;1.60;;;;;;;;;;5062845;28;20044;-65
2024/01/11 08:02:41;;;;;;;3.17;1.50;;;;;;;;;;5052145;28;20032;-65
2024/01/11 08:05:07;;;;;;;3.00;1.60;;;;;;;;;;5052639;28;20313;-64
2024/01/11 08:07:32;;;;;;;2.67;1.40;;;;;;;;;;5058879;28;20032;-65
2024/01/11 08:09:58;;;;;;;3.60;2.00;;;;;;;;;;5065196;28;20033;-65
2024/01/11 08:12:24;;;;;;;3.17;1.83;;;;;;;;;;5046129;28;20044;-64
2024/01/11 08:14:50;;;;;;;3.00;1.30;;;;;;;;;;5074801;28;20306;-64
2024/01/11 08:17:15;;;;;;;3.50;1.27;;;;;;;;;;5055341;28;20017;-64
2024/01/11 08:19:44;;;;;;;5.50;1.60;;;;;;;;;;5037760;28;20048;-65
2024/01/11 08:22:10;;;;;;;4.07;1.63;;;;;;;;;;5039403;28;20026;-65
2024/01/11 08:24:36;;;;;;;4.93;1.60;;;;;;;;;;5044598;28;20062;-64
2024/01/11 08:27:01;;;;;;;4.70;1.55;;;;;;;;;;5060580;28;20028;-64
2024/01/11 08:29:27;;;;;;;4.85;1.55;;;;;;;;;;5052687;28;20014;-64
2024/01/11 08:31:54;;;;;;;5.93;2.15;;;;;;;;;;5038539;28;20017;-65
2024/01/11 08:34:20;;;;;;;4.00;1.90;;;;;;;;;;5046203;28;20017;-64
2024/01/11 08:36:46;;;;;;;6.00;1.83;;;;;;;;;;5064680;28;20041;-64
2024/01/11 08:39:12;;;;;;;3.80;1.50;;;;;;;;;;5046200;28;20044;-65
2024/01/11 08:41:38;;;;;;;6.30;2.10;;;;;;;;;;5043516;28;20033;-63
2024/01/11 08:44:07;;;;;;;4.07;1.70;;;;;;;;;;5047346;28;20356;-63
2024/01/11 08:46:33;;;;;;;3.22;1.80;;;;;;;;;;5076982;28;20238;-64
2024/01/11 08:48:59;;;;;;;6.40;1.80;;;;;;;;;;5033844;28;20033;-65
2024/01/11 08:51:24;;;;;;;1.48;0.90;;;;;;;;;;5043940;28;20072;-64
2024/01/11 08:53:50;;;;;;;1.27;0.85;;;;;;;;;;5042856;28;20022;-64
2024/01/11 08:56:17;;;;;;;3.40;1.15;;;;;;;;;;5039924;28;20033;-65
2024/01/11 08:58:42;;;;;;;1.55;0.88;;;;;;;;;;5048299;28;20024;-65
2024/01/11 09:01:08;;;;;;;0.77;0.75;;;;;;;;;;5051216;28;20076;-64
2024/01/11 09:03:37;;;;;;;2.90;0.88;;;;;;;;;;5060040;28;20029;-65
2024/01/11 09:06:03;;;;;;;0.70;0.70;;;;;;;;;;5044764;28;20028;-64
2024/01/11 09:08:29;;;;;;;3.42;0.88;;;;;;;;;;5043558;28;20239;-64
2024/01/11 09:10:55;;;;;;;3.85;1.13;;;;;;;;;;5043784;28;20013;-64
2024/01/11 09:13:21;;;;;;;2.00;1.20;;;;;;;;;;5046228;28;20024;-64
2024/01/11 09:15:46;;;;;;;1.30;1.00;;;;;;;;;;5043041;28;20014;-64
2024/01/11 09:18:12;;;;;;;2.42;1.00;;;;;;;;;;5040408;28;20253;-64
2024/01/11 09:20:37;;;;;;;1.50;1.40;;;;;;;;;;5041294;28;20069;-65
2024/01/11 09:23:03;;;;;;;1.20;1.10;;;;;;;;;;5043288;28;20040;-65
2024/01/11 09:25:30;;;;;;;2.22;1.30;;;;;;;;;;5044309;28;20081;-64
2024/01/11 09:27:55;;;;;;;2.33;1.30;;;;;;;;;;5043304;28;20022;-64
2024/01/11 09:30:20;;;;;;;1.25;1.15;;;;;;;;;;5043966;28;20080;-65
2024/01/11 09:32:47;;;;;;;1.50;1.40;;;;;;;;;;5044125;28;20033;-65
2024/01/11 09:35:13;;;;;;;3.42;1.73;;;;;;;;;;5044014;28;20017;-65
2024/01/11 09:37:38;;;;;;;2.13;1.58;;;;;;;;;;5042655;28;20265;-65
2024/01/11 09:40:08;;;;;;;2.47;1.92;;;;;;;;;;5042808;28;20017;-65
2024/01/11 09:42:33;;;;;;;2.30;1.67;;;;;;;;;;5043685;28;20104;-65
2024/01/11 09:44:59;;;;;;;1.73;1.63;;;;;;;;;;5043949;28;20197;-66
2024/01/11 09:47:25;;;;;;;2.10;1.50;;;;;;;;;;5040344;28;20017;-64
2024/01/11 09:49:51;;;;;;;3.50;1.40;;;;;;;;;;5042978;28;20047;-64
2024/01/11 09:52:19;;;;;;;2.03;1.30;;;;;;;;;;5042605;28;20017;-64
2024/01/11 09:54:45;;;;;;;3.08;1.23;;;;;;;;;;5043193;28;20085;-64
2024/01/11 09:57:10;;;;;;;0.98;0.93;;;;;;;;;;5058879;28;20033;-63
2024/01/11 09:59:36;;;;;;;1.30;1.20;;;;;;;;;;5051615;28;20315;-65
2024/01/11 10:02:02;;;;;;;2.22;1.50;;;;;;;;;;5049576;28;20361;-64
2024/01/11 10:04:28;;;;;;;1.15;1.08;;;;;;;;;;5060788;28;20027;-64
2024/01/11 10:06:53;;;;;;;6.25;1.88;;;;;;;;;;5042612;28;20037;-64
2024/01/11 10:09:19;;;;;;;1.75;1.52;;;;;;;;;;5035758;28;20043;-65
2024/01/11 10:11:45;;;;;;;2.80;1.70;;;;;;;;;;5040984;28;20017;-63
2024/01/11 10:14:12;;;;;;;1.10;1.00;;;;;;;;;;5042614;28;20040;-65
2024/01/11 10:16:37;;;;;;;1.70;1.13;;;;;;;;;;5041955;28;20029;-63
2024/01/11 10:19:03;;;;;;;1.15;1.05;;;;;;;;;;5038562;28;20044;-63
2024/01/11 10:21:30;;;;;;;2.25;1.35;;;;;;;;;;5056287;28;20022;-63
2024/01/11 10:23:57;;;;;;;1.20;1.10;;;;;;;;;;5042149;28;20051;-63
2024/01/11 10:26:22;;;;;;;1.63;1.50;;;;;;;;;;5037269;28;20333;-63
2024/01/11 10:28:48;;;;;;;1.92;1.33;;;;;;;;;;5041904;28;20025;-64
2024/01/11 10:31:15;;;;;;;2.08;1.38;;;;;;;;;;5042178;28;20025;-64
2024/01/11 10:33:41;;;;;;;2.95;2.20;;;;;;;;;;5057838;28;20167;-63
2024/01/11 10:36:07;;;;;;;1.67;1.30;;;;;;;;;;5042223;28;20064;-63
2024/01/11 10:38:35;;;;;;;1.10;1.00;;;;;;;;;;5053233;28;20202;-64
2024/01/11 10:41:04;;;;;;;1.23;1.13;;;;;;;;;;5055414;28;20028;-64
2024/01/11 10:43:31;;;;;;;2.55;1.10;;;;;;;;;;5030649;28;20056;-63
2024/01/11 10:45:59;;;;;;;1.77;1.30;;;;;;;;;;5038438;28;20024;-63
2024/01/11 10:48:25;;;;;;;1.58;1.27;;;;;;;;;;5056788;28;20025;-64
2024/01/11 10:50:54;;;;;;;1.98;1.15;;;;;;;;;;5041308;28;20013;-64
2024/01/11 10:53:28;;;;;;;1.80;1.20;;;;;;;;;;5038982;28;20017;-64
2024/01/11 10:55:55;;;;;;;1.55;1.13;;;;;;;;;;5037588;28;20419;-63
2024/01/11 10:58:22;;;;;;;2.13;1.42;;;;;;;;;;5039605;28;20051;-64
2024/01/11 11:00:48;;;;;;;1.67;1.10;;;;;;;;;;5038192;28;20029;-63
2024/01/11 11:03:14;;;;;;;2.15;1.50;;;;;;;;;;5036725;28;20084;-65
2024/01/11 11:05:40;;;;;;;5.80;3.22;;;;;;;;;;5035856;28;20264;-63
2024/01/11 11:08:06;;;;;;;1.88;1.40;;;;;;;;;;5040998;28;20033;-64
2024/01/11 11:10:34;;;;;;;2.67;1.27;;;;;;;;;;5039869;28;20044;-64
2024/01/11 11:13:00;;;;;;;2.33;1.00;;;;;;;;;;5038523;28;20368;-64
2024/01/11 11:15:28;;;;;;;1.77;1.55;;;;;;;;;;5035470;28;20049;-66
2024/01/11 11:17:54;;;;;;;2.30;1.42;;;;;;;;;;5036234;28;20028;-66
2024/01/11 11:20:19;;;;;;;1.35;1.25;;;;;;;;;;5037463;28;20041;-62
2024/01/11 11:23:02;;;;;;;1.40;1.20;;;;;;;;;;5039627;28;20215;-62
2024/01/11 11:25:29;;;;;;;1.70;1.15;;;;;;;;;;5037249;28;20195;-63
2024/01/11 11:27:55;;;;;;;1.90;1.38;;;;;;;;;;5037361;28;20051;-64
2024/01/11 11:30:20;;;;;;;1.20;1.10;;;;;;;;;;5054929;28;20302;-63
2024/01/11 11:32:46;;;;;;;2.90;1.75;;;;;;;;;;5049846;28;20030;-63
2024/01/11 11:35:12;;;;;;;2.63;1.50;;;;;;;;;;5041715;28;20060;-63
2024/01/11 11:37:38;;;;;;;3.38;1.48;;;;;;;;;;5043934;28;20061;-62
2024/01/11 11:40:05;;;;;;;1.85;1.50;;;;;;;;;;5063157;28;20088;-63
2024/01/11 11:42:31;;;;;;;2.28;1.45;;;;;;;;;;5047234;28;20021;-64
2024/01/11 11:44:57;;;;;;;5.63;1.42;;;;;;;;;;5058493;28;20017;-63
2024/01/11 11:47:23;;;;;;;2.42;1.50;;;;;;;;;;5072166;28;20202;-63
2024/01/11 11:50:04;;;;;;;1.25;1.15;;;;;;;;;;5041412;28;20017;-62
2024/01/11 11:52:32;;;;;;;3.58;2.50;;;;;;;;;;5027787;28;20022;-62
2024/01/11 11:54:58;;;;;;;5.13;1.75;;;;;;;;;;5065396;28;20025;-62
2024/01/11 11:57:24;;;;;;;2.75;2.03;;;;;;;;;;5048347;28;20052;-62
2024/01/11 11:59:49;;;;;;;2.72;1.80;;;;;;;;;;5056999;28;20185;-63
2024/01/11 12:02:16;;;;;;;1.98;1.48;;;;;;;;;;5056086;28;20053;-62
2024/01/11 12:04:48;;;;;;;4.53;1.75;;;;;;;;;;5037848;28;20088;-61
2024/01/11 12:07:14;;;;;;;2.60;1.80;;;;;;;;;;5041469;28;20013;-61
2024/01/11 12:09:40;;;;;;;2.63;1.60;;;;;;;;;;5059656;28;20057;-61
2024/01/11 12:12:05;;;;;;;2.22;1.50;;;;;;;;;;5055857;28;20074;-61
2024/01/11 12:14:31;;;;;;;2.38;1.58;;;;;;;;;;5047334;28;20017;-63
2024/01/11 12:16:59;;;;;;;2.47;1.65;;;;;;;;;;5046801;28;20032;-63
2024/01/11 12:19:25;;;;;;;2.30;1.40;;;;;;;;;;5041053;28;20017;-62
2024/01/11 12:21:50;;;;;;;2.13;1.50;;;;;;;;;;5045004;28;20299;-65
2024/01/11 12:24:16;;;;;;;2.63;1.75;;;;;;;;;;5055616;28;20024;-63
2024/01/11 12:26:42;;;;;;;2.00;1.80;;;;;;;;;;5048727;28;20088;-65
2024/01/11 12:29:09;;;;;;;2.60;1.58;;;;;;;;;;5043951;28;20013;-64
2024/01/11 12:31:35;;;;;;;3.45;1.90;;;;;;;;;;5062957;28;20036;-64
2024/01/11 12:34:01;;;;;;;2.22;1.73;;;;;;;;;;5044572;28;20022;-64
2024/01/11 12:36:26;;;;;;;2.10;1.50;;;;;;;;;;5061177;28;20041;-65
2024/01/11 12:38:52;;;;;;;2.47;1.70;;;;;;;;;;5067953;28;20040;-63
2024/01/11 12:41:18;;;;;;;2.05;1.55;;;;;;;;;;5051546;28;20450;-63
2024/01/11 12:43:43;;;;;;;2.13;1.60;;;;;;;;;;5061885;28;20020;-63
2024/01/11 12:46:09;;;;;;;1.90;1.70;;;;;;;;;;5042639;28;20226;-64
2024/01/11 12:48:34;;;;;;;3.90;1.33;;;;;;;;;;5039671;28;20022;-62
2024/01/11 12:51:00;;;;;;;3.63;1.60;;;;;;;;;;5044021;28;20013;-64
2024/01/11 12:53:26;;;;;;;2.50;1.67;;;;;;;;;;5052295;28;20194;-64
2024/01/11 12:56:10;;;;;;;3.95;2.70;;;;;;;;;;5060505;28;20084;-64
2024/01/11 12:58:37;;;;;;;2.75;1.67;;;;;;;;;;5043692;28;20306;-64
2024/01/11 13:01:03;;;;;;;2.05;1.67;;;;;;;;;;5059253;28;20239;-64
2024/01/11 13:03:30;;;;;;;2.00;1.50;;;;;;;;;;5043821;28;20059;-64
2024/01/11 13:05:56;;;;;;;8.68;5.60;;;;;;;;;;5042728;28;20021;-63
2024/01/11 13:08:22;;;;;;;2.78;1.90;;;;;;;;;;5051392;28;20084;-63
2024/01/11 13:10:47;;;;;;;2.33;1.90;;;;;;;;;;5033914;28;20030;-63
2024/01/11 13:13:13;;;;;;;3.90;1.98;;;;;;;;;;5041080;28;20036;-63
2024/01/11 13:15:39;;;;;;;3.20;2.00;;;;;;;;;;5043482;28;20104;-64
2024/01/11 13:18:05;;;;;;;3.55;1.83;;;;;;;;;;5040833;28;20506;-65
2024/01/11 13:20:31;;;;;;;5.05;1.90;;;;;;;;;;5042043;28;20023;-64
2024/01/11 13:23:16;;;;;;;2.13;1.88;;;;;;;;;;5042302;28;20014;-65
2024/01/11 13:25:42;;;;;;;2.25;1.77;;;;;;;;;;5042699;28;20024;-65
2024/01/11 13:28:08;;;;;;;3.70;2.05;;;;;;;;;;5043100;28;20022;-66
2024/01/11 13:30:34;;;;;;;3.15;2.10;;;;;;;;;;5042516;28;20038;-65
2024/01/11 13:32:59;;;;;;;4.65;2.17;;;;;;;;;;5043110;28;20021;-65
2024/01/11 13:35:25;;;;;;;2.95;2.10;;;;;;;;;;5042911;28;20021;-65
2024/01/11 13:37:50;;;;;;;4.57;2.25;;;;;;;;;;5045980;28;20273;-65
2024/01/11 13:40:16;;;;;;;3.65;2.10;;;;;;;;;;5050484;28;20066;-64
2024/01/11 13:42:43;;;;;;;5.65;2.67;;;;;;;;;;5042790;28;20013;-66
2024/01/11 13:45:09;;;;;;;3.75;2.45;;;;;;;;;;5042890;28;20044;-66
2024/01/11 13:47:35;;;;;;;3.35;2.50;;;;;;;;;;5049186;28;20245;-67
2024/01/11 13:50:01;;;;;;;3.35;2.20;;;;;;;;;;5052836;28;20068;-67
2024/01/11 13:52:26;;;;;;;4.03;2.42;;;;;;;;;;5042059;28;20021;-68
2024/01/11 13:54:51;;;;;;;3.33;2.38;;;;;;;;;;5061604;28;20013;-68
2024/01/11 13:57:17;;;;;;;3.55;2.70;;;;;;;;;;5047524;28;20089;-68
2024/01/11 13:59:43;;;;;;;3.88;2.58;;;;;;;;;;5053132;28;20021;-68
2024/01/11 14:02:08;;;;;;;5.57;2.40;;;;;;;;;;5055392;28;20052;-68
2024/01/11 14:04:34;;;;;;;3.58;2.60;;;;;;;;;;5043127;28;20029;-66
2024/01/11 14:07:00;;;;;;;4.38;2.35;;;;;;;;;;5054291;28;20037;-66
2024/01/11 14:09:25;;;;;;;3.80;2.72;;;;;;;;;;5049739;28;20029;-67
2024/01/11 14:11:51;;;;;;;3.15;2.60;;;;;;;;;;5044421;28;20013;-65
2024/01/11 14:14:18;;;;;;;3.42;2.20;;;;;;;;;;5042591;28;20035;-65
2024/01/11 14:16:45;;;;;;;3.75;2.50;;;;;;;;;;5059760;28;20314;-65
2024/01/11 14:19:11;;;;;;;3.63;2.80;;;;;;;;;;5047957;28;20079;-66
2024/01/11 14:21:36;;;;;;;4.53;2.70;;;;;;;;;;5040207;28;20034;-66
2024/01/11 14:24:02;;;;;;;3.05;2.40;;;;;;;;;;5040408;28;20038;-67
2024/01/11 14:26:28;;;;;;;3.28;2.67;;;;;;;;;;5055821;28;20310;-67
2024/01/11 14:28:54;;;;;;;5.35;4.28;;;;;;;;;;5047728;28;20021;-67
2024/01/11 14:31:20;;;;;;;4.28;2.75;;;;;;;;;;5041596;28;20018;-67
2024/01/11 14:33:45;;;;;;;5.13;2.53;;;;;;;;;;5045054;28;20064;-68